Time;durP1;ratioP1;P1;durP2;ratioP2;P2;SDS_P1;SDS_P2;PMS_P1;PMS_P2;Temp;Humidity;BMP_temperature;BMP_pressure;BME280_temperature;BME280_humidity;BME280_pressure;Samples;Min_cycle;Max_cycle;Signal;HPM_P1;HPM_P2
2021/06/05 00:00:35;;;;;;;1.27;1.17;;;26.40;46.80;;;;;;5164010;27;20440;-41
2021/06/05 00:03:07;;;;;;;1.60;1.50;;;26.40;48.40;;;;;;5163523;27;20436;-41
2021/06/05 00:05:40;;;;;;;3.10;1.40;;;26.40;47.20;;;;;;5163404;27;20495;-41
2021/06/05 00:08:12;;;;;;;1.30;1.20;;;26.50;48.30;;;;;;5163120;27;20509;-41
2021/06/05 00:10:45;;;;;;;1.37;1.27;;;26.50;49.50;;;;;;5167801;27;20479;-41
2021/06/05 00:13:20;;;;;;;1.40;1.30;;;26.40;49.00;;;;;;5163577;27;20534;-41
2021/06/05 00:15:51;;;;;;;1.87;1.67;;;26.20;48.80;;;;;;5160742;27;20443;-41
2021/06/05 00:18:21;;;;;;;3.00;1.40;;;26.00;49.40;;;;;;5166758;27;20511;-41
2021/06/05 00:20:52;;;;;;;1.53;1.33;;;26.00;49.80;;;;;;5167873;27;20471;-42
2021/06/05 00:23:24;;;;;;;1.53;1.33;;;26.10;49.40;;;;;;5154842;27;20451;-40
2021/06/05 00:25:56;;;;;;;2.80;1.30;;;26.00;48.90;;;;;;5165810;27;20460;-41
2021/06/05 00:28:28;;;;;;;1.67;1.57;;;25.90;49.00;;;;;;5166789;27;20520;-40
2021/06/05 00:30:59;;;;;;;4.00;1.43;;;25.60;49.60;;;;;;5165826;27;20451;-41
2021/06/05 00:33:30;;;;;;;1.43;1.33;;;25.60;49.90;;;;;;5166886;27;20467;-41
2021/06/05 00:36:00;;;;;;;1.73;1.50;;;25.80;51.70;;;;;;5167514;27;20467;-41
2021/06/05 00:38:31;;;;;;;2.37;1.37;;;25.80;50.10;;;;;;5166790;27;20643;-41
2021/06/05 00:41:02;;;;;;;1.43;1.33;;;25.80;50.50;;;;;;5166501;27;20476;-41
2021/06/05 00:43:38;;;;;;;1.57;1.47;;;25.70;49.40;;;;;;5166005;27;20468;-41
2021/06/05 00:46:09;;;;;;;1.87;1.43;;;25.60;49.40;;;;;;5166265;27;20880;-41
2021/06/05 00:48:40;;;;;;;1.43;1.20;;;25.70;50.80;;;;;;5167238;27;20543;-41
2021/06/05 00:51:11;;;;;;;1.23;1.13;;;25.70;50.50;;;;;;5166724;27;20440;-40
2021/06/05 00:53:41;;;;;;;1.53;1.20;;;25.80;51.50;;;;;;5166935;27;20511;-40
2021/06/05 00:56:13;;;;;;;1.90;1.20;;;25.80;50.10;;;;;;5166070;27;20917;-40
2021/06/05 00:58:45;;;;;;;1.90;1.40;;;25.80;50.20;;;;;;5167122;27;20559;-41
2021/06/05 01:01:18;;;;;;;1.70;1.50;;;25.70;50.30;;;;;;5166062;27;20479;-40
2021/06/05 01:03:49;;;;;;;1.50;1.10;;;25.50;50.90;;;;;;5166841;27;20774;-41
2021/06/05 01:06:23;;;;;;;3.53;1.10;;;25.40;50.60;;;;;;5162695;27;20448;-41
2021/06/05 01:09:02;;;;;;;1.63;1.23;;;25.30;51.10;;;;;;5166008;27;20467;-41
2021/06/05 01:11:42;;;;;;;1.50;1.40;;;25.20;51.20;;;;;;5165107;27;20447;-41
2021/06/05 01:14:23;;;;;;;2.93;1.53;;;25.10;51.70;;;;;;5168832;27;20943;-41
2021/06/05 01:17:01;;;;;;;1.80;1.33;;;25.10;51.80;;;;;;5170596;27;20958;-41
2021/06/05 01:19:43;;;;;;;1.40;1.30;;;25.00;52.10;;;;;;5165720;27;20497;-41
2021/06/05 01:22:35;;;;;;;2.10;1.30;;;25.00;52.70;;;;;;5152849;27;20439;-40
2021/06/05 01:25:21;;;;;;;1.10;1.10;;;24.90;52.50;;;;;;5153954;27;20517;-41
2021/06/05 01:27:56;;;;;;;3.20;1.00;;;24.90;52.70;;;;;;5165614;27;20464;-40
2021/06/05 01:30:32;;;;;;;2.40;1.80;;;24.80;52.30;;;;;;5165559;27;20463;-40
2021/06/05 01:33:02;;;;;;;1.90;1.10;;;24.60;52.80;;;;;;5165379;27;20580;-40
2021/06/05 01:35:34;;;;;;;1.60;1.03;;;24.60;52.90;;;;;;5165590;27;20571;-41
2021/06/05 01:38:06;;;;;;;1.40;1.30;;;24.40;53.10;;;;;;5165445;27;20881;-42
2021/06/05 01:40:37;;;;;;;2.40;1.57;;;24.40;52.50;;;;;;5165955;27;20448;-41
2021/06/05 01:43:12;;;;;;;2.50;1.27;;;24.40;53.40;;;;;;5165691;27;20436;-41
2021/06/05 01:45:44;;;;;;;1.27;1.17;;;24.30;53.80;;;;;;5165001;27;20500;-42
2021/06/05 01:48:15;;;;;;;1.80;1.10;;;24.20;54.30;;;;;;5164355;27;20452;-41
2021/06/05 01:50:47;;;;;;;2.50;1.10;;;24.20;55.00;;;;;;5165169;27;20459;-41
2021/06/05 01:53:21;;;;;;;1.63;1.13;;;24.10;54.70;;;;;;5165156;27;20512;-41
2021/06/05 01:55:55;;;;;;;2.57;1.10;;;24.20;54.70;;;;;;5164106;27;20451;-40
2021/06/05 01:58:30;;;;;;;1.80;1.23;;;24.10;55.40;;;;;;5164569;27;20471;-41
2021/06/05 02:01:03;;;;;;;1.63;1.40;;;24.00;55.30;;;;;;5164919;27;20471;-41
2021/06/05 02:03:33;;;;;;;1.13;1.03;;;23.80;56.00;;;;;;5164249;27;20434;-41
2021/06/05 02:06:04;;;;;;;1.27;1.17;;;23.80;56.50;;;;;;5162432;27;20440;-41
2021/06/05 02:08:35;;;;;;;2.50;1.30;;;23.70;57.10;;;;;;5152049;27;20448;-41
2021/06/05 02:11:09;;;;;;;1.53;1.23;;;23.70;56.30;;;;;;5161678;27;20440;-41
2021/06/05 02:13:43;;;;;;;4.23;1.53;;;23.70;56.30;;;;;;5164949;27;20565;-41
2021/06/05 02:16:19;;;;;;;3.63;1.40;;;23.70;55.70;;;;;;5164586;27;20660;-41
2021/06/05 02:18:55;;;;;;;1.63;1.00;;;23.70;56.00;;;;;;5149383;27;20622;-41
2021/06/05 02:21:28;;;;;;;1.20;1.10;;;23.50;56.30;;;;;;5158092;27;20426;-42
2021/06/05 02:24:03;;;;;;;2.10;1.03;;;23.50;56.20;;;;;;5160161;27;20462;-42
2021/06/05 02:26:52;;;;;;;1.50;1.00;;;23.40;56.60;;;;;;5164518;27;20469;-41
2021/06/05 02:29:28;;;;;;;1.70;1.23;;;23.30;56.40;;;;;;5163927;27;20515;-41
2021/06/05 02:31:59;;;;;;;2.17;1.00;;;23.20;57.00;;;;;;5152303;27;20415;-41
2021/06/05 02:34:32;;;;;;;1.50;1.27;;;23.10;57.90;;;;;;5156475;27;21018;-41
2021/06/05 02:37:24;;;;;;;2.50;1.30;;;23.00;57.90;;;;;;5164364;27;22033;-41
2021/06/05 02:39:58;;;;;;;1.17;1.07;;;23.10;58.10;;;;;;5165194;27;20440;-41
2021/06/05 02:42:29;;;;;;;2.27;1.27;;;23.10;58.50;;;;;;5164406;27;20519;-41
2021/06/05 02:45:02;;;;;;;2.30;1.30;;;23.00;58.80;;;;;;5164382;27;20482;-41
2021/06/05 02:47:33;;;;;;;1.50;1.40;;;23.00;59.00;;;;;;5164949;27;20440;-41
2021/06/05 02:50:08;;;;;;;1.40;1.30;;;22.90;59.60;;;;;;5164284;27;20584;-42
2021/06/05 02:52:38;;;;;;;1.73;1.10;;;22.80;59.90;;;;;;5163983;27;20516;-41
2021/06/05 02:55:12;;;;;;;1.70;1.37;;;22.70;59.90;;;;;;5163853;27;20422;-41
2021/06/05 02:57:43;;;;;;;1.93;1.20;;;22.60;60.30;;;;;;5163807;27;20472;-42
2021/06/05 03:00:29;;;;;;;1.40;1.30;;;22.50;60.50;;;;;;5149434;27;20418;-43
2021/06/05 03:03:00;;;;;;;3.67;1.07;;;22.40;60.00;;;;;;5163651;27;20450;-42
2021/06/05 03:05:32;;;;;;;2.47;1.30;;;22.20;59.40;;;;;;5164821;27;20446;-42
2021/06/05 03:08:03;;;;;;;2.07;1.10;;;22.10;59.70;;;;;;5163528;27;20475;-41
2021/06/05 03:10:34;;;;;;;4.77;1.10;;;21.90;59.50;;;;;;5164204;27;20427;-40
2021/06/05 03:13:07;;;;;;;1.67;1.40;;;21.80;59.60;;;;;;5158376;27;20479;-40
2021/06/05 03:15:41;;;;;;;1.13;1.00;;;21.70;58.70;;;;;;5156844;27;20448;-41
2021/06/05 03:18:12;;;;;;;1.53;1.43;;;21.50;59.20;;;;;;5157396;27;20441;-41
2021/06/05 03:20:44;;;;;;;1.87;1.27;;;21.50;59.40;;;;;;5162151;27;20472;-42
2021/06/05 03:23:18;;;;;;;1.33;1.10;;;21.40;59.40;;;;;;5161690;27;20454;-41
2021/06/05 03:25:48;;;;;;;3.17;1.30;;;21.30;60.00;;;;;;5163886;27;20445;-41
2021/06/05 03:28:20;;;;;;;1.40;1.30;;;21.20;60.20;;;;;;5162001;27;20459;-41
2021/06/05 03:30:52;;;;;;;1.60;1.23;;;21.10;60.50;;;;;;5163767;27;20535;-42
2021/06/05 03:33:23;;;;;;;2.33;1.43;;;21.00;60.20;;;;;;5163251;27;20507;-42
2021/06/05 03:35:59;;;;;;;1.53;1.00;;;20.90;60.10;;;;;;5164779;27;20638;-41
2021/06/05 03:38:30;;;;;;;1.00;1.00;;;20.80;60.80;;;;;;5163154;27;20555;-40
2021/06/05 03:41:01;;;;;;;2.10;1.03;;;20.80;60.70;;;;;;5163562;27;20415;-42
2021/06/05 03:43:32;;;;;;;1.33;1.10;;;20.70;60.90;;;;;;5164358;27;20921;-41
2021/06/05 03:46:04;;;;;;;1.30;1.20;;;20.60;61.10;;;;;;5167694;27;20430;-41
2021/06/05 03:48:35;;;;;;;1.40;1.30;;;20.50;61.60;;;;;;5165608;27;20426;-41
2021/06/05 03:51:06;;;;;;;2.20;1.80;;;20.50;61.60;;;;;;5168285;27;20447;-41
2021/06/05 03:53:37;;;;;;;1.90;1.50;;;20.40;62.20;;;;;;5168216;27;20457;-40
2021/06/05 03:56:07;;;;;;;3.77;1.30;;;20.30;62.50;;;;;;5167434;27;21015;-41
2021/06/05 03:58:41;;;;;;;2.03;1.10;;;20.20;61.70;;;;;;5166747;27;20440;-40
2021/06/05 04:01:16;;;;;;;1.33;1.23;;;20.10;62.20;;;;;;5167433;27;20448;-41
2021/06/05 04:03:48;;;;;;;1.23;1.13;;;19.90;62.90;;;;;;5164533;27;20422;-41
2021/06/05 04:06:20;;;;;;;1.60;1.20;;;19.90;63.10;;;;;;5167522;27;20491;-40
2021/06/05 04:08:51;;;;;;;3.10;1.47;;;19.80;63.60;;;;;;5168398;27;20835;-40
2021/06/05 04:11:23;;;;;;;2.73;1.40;;;19.70;64.20;;;;;;5166678;27;20426;-41
2021/06/05 04:13:53;;;;;;;1.20;1.10;;;19.70;64.60;;;;;;5157221;27;20480;-42
2021/06/05 04:16:25;;;;;;;1.27;1.17;;;19.60;65.00;;;;;;5165054;27;20447;-41
2021/06/05 04:18:56;;;;;;;1.63;1.03;;;19.50;64.70;;;;;;5166486;27;20507;-42
2021/06/05 04:21:28;;;;;;;1.30;1.13;;;19.40;65.10;;;;;;5168627;27;20402;-42
2021/06/05 04:23:58;;;;;;;1.77;1.30;;;19.40;64.40;;;;;;5183748;27;20832;-41
2021/06/05 04:26:29;;;;;;;4.10;1.40;;;19.30;64.80;;;;;;5179223;27;20489;-41
2021/06/05 04:28:59;;;;;;;1.87;1.10;;;19.30;65.10;;;;;;5177160;27;20476;-41
2021/06/05 04:31:31;;;;;;;1.57;1.20;;;19.20;65.00;;;;;;5164328;27;20468;-41
2021/06/05 04:34:02;;;;;;;1.43;1.33;;;19.20;65.70;;;;;;5166815;27;20526;-41
2021/06/05 04:36:32;;;;;;;1.20;1.10;;;19.20;64.40;;;;;;5166745;27;20433;-41
2021/06/05 04:39:04;;;;;;;1.30;1.20;;;19.00;64.80;;;;;;5166483;27;20498;-40
2021/06/05 04:41:35;;;;;;;1.67;1.57;;;19.00;65.30;;;;;;5166108;27;20451;-40
2021/06/05 04:44:05;;;;;;;1.47;1.37;;;18.90;64.80;;;;;;5166822;27;20455;-40
2021/06/05 04:46:37;;;;;;;1.43;1.00;;;18.90;65.00;;;;;;5166945;27;20477;-42
2021/06/05 04:49:08;;;;;;;1.67;1.20;;;18.90;65.30;;;;;;5166847;27;20473;-41
2021/06/05 04:51:40;;;;;;;2.63;1.50;;;18.80;65.30;;;;;;5166537;27;20452;-41
2021/06/05 04:54:10;;;;;;;1.17;1.10;;;18.80;65.60;;;;;;5166526;27;20791;-41
2021/06/05 04:56:43;;;;;;;1.40;1.13;;;18.70;66.20;;;;;;5165252;27;20492;-41
2021/06/05 04:59:16;;;;;;;2.93;1.23;;;18.70;66.20;;;;;;5167065;27;20451;-41
2021/06/05 05:01:49;;;;;;;1.27;1.10;;;18.70;66.20;;;;;;5163111;27;20768;-41
2021/06/05 05:04:20;;;;;;;1.00;1.00;;;18.60;67.40;;;;;;5160037;27;20471;-41
2021/06/05 05:06:50;;;;;;;1.20;1.10;;;18.50;66.90;;;;;;5166792;27;20455;-41
2021/06/05 05:09:21;;;;;;;1.70;1.20;;;18.60;66.80;;;;;;5166849;27;20471;-40
2021/06/05 05:11:51;;;;;;;1.43;1.30;;;18.50;67.20;;;;;;5165750;27;20495;-40
2021/06/05 05:14:22;;;;;;;1.20;1.10;;;18.50;67.60;;;;;;5162999;27;21029;-41
2021/06/05 05:16:54;;;;;;;2.50;1.73;;;18.50;68.10;;;;;;5163720;27;20443;-41
2021/06/05 05:19:24;;;;;;;1.30;1.20;;;18.40;68.50;;;;;;5165507;27;20458;-41
2021/06/05 05:21:55;;;;;;;1.40;1.30;;;18.40;67.10;;;;;;5162437;27;20474;-41
2021/06/05 05:24:25;;;;;;;1.50;1.40;;;18.30;67.10;;;;;;5166522;27;20432;-41
2021/06/05 05:26:55;;;;;;;3.80;1.20;;;18.20;67.80;;;;;;5166050;27;20498;-41
2021/06/05 05:29:26;;;;;;;1.60;1.43;;;18.20;68.90;;;;;;5165946;27;20465;-41
2021/06/05 05:31:58;;;;;;;1.40;1.30;;;18.10;68.20;;;;;;5165570;27;20451;-41
2021/06/05 05:34:28;;;;;;;2.57;1.60;;;18.10;69.50;;;;;;5165550;27;20559;-41
2021/06/05 05:37:00;;;;;;;1.77;1.30;;;18.10;70.70;;;;;;5166024;27;20467;-41
2021/06/05 05:39:30;;;;;;;2.40;1.17;;;17.90;70.30;;;;;;5164030;27;20476;-41
2021/06/05 05:42:01;;;;;;;1.90;1.40;;;17.90;71.30;;;;;;5164166;27;20422;-41
2021/06/05 05:44:31;;;;;;;1.27;1.13;;;17.80;71.90;;;;;;5166335;27;20467;-41
2021/06/05 05:47:04;;;;;;;2.20;1.60;;;17.90;70.30;;;;;;5158443;27;20458;-41
2021/06/05 05:49:34;;;;;;;1.60;1.47;;;17.80;71.00;;;;;;5166027;27;20546;-41
2021/06/05 05:52:05;;;;;;;2.67;1.40;;;17.70;70.70;;;;;;5166237;27;20813;-41
2021/06/05 05:54:36;;;;;;;2.83;1.47;;;17.70;70.10;;;;;;5165778;27;20479;-41
2021/06/05 05:57:08;;;;;;;2.90;1.10;;;17.70;69.70;;;;;;5146025;27;20449;-41
2021/06/05 05:59:39;;;;;;;1.87;1.57;;;17.70;69.40;;;;;;5164849;27;20445;-40
2021/06/05 06:02:11;;;;;;;1.97;1.17;;;17.70;69.30;;;;;;5166046;27;20466;-41
2021/06/05 06:04:42;;;;;;;2.50;1.97;;;17.70;69.40;;;;;;5165432;27;20447;-41
2021/06/05 06:07:12;;;;;;;3.07;1.50;;;17.60;70.30;;;;;;5165570;27;20436;-41
2021/06/05 06:09:43;;;;;;;1.50;1.40;;;17.50;71.70;;;;;;5165406;27;20483;-41
2021/06/05 06:12:14;;;;;;;1.60;1.50;;;17.50;72.20;;;;;;5164771;27;20471;-41
2021/06/05 06:14:44;;;;;;;1.60;1.50;;;17.40;71.70;;;;;;5165513;27;20484;-41
2021/06/05 06:17:16;;;;;;;1.17;1.07;;;17.40;72.60;;;;;;5165583;27;20773;-41
2021/06/05 06:19:48;;;;;;;1.23;1.13;;;17.30;73.20;;;;;;5164709;27;20463;-41
2021/06/05 06:22:18;;;;;;;2.07;1.50;;;17.30;72.30;;;;;;5165528;27;20419;-41
2021/06/05 06:24:49;;;;;;;1.80;1.43;;;17.30;73.00;;;;;;5165288;27;20467;-41
2021/06/05 06:27:19;;;;;;;2.00;1.37;;;17.30;72.60;;;;;;5144047;27;20452;-41
2021/06/05 06:29:50;;;;;;;2.10;1.60;;;17.20;74.40;;;;;;5144720;27;20400;-41
2021/06/05 06:32:22;;;;;;;2.20;1.27;;;17.20;75.20;;;;;;5154790;27;20430;-41
2021/06/05 06:34:53;;;;;;;1.83;1.40;;;17.10;74.00;;;;;;5164462;27;20487;-40
2021/06/05 06:37:43;;;;;;;2.17;1.30;;;17.10;74.80;;;;;;5164757;27;20462;-40
2021/06/05 06:40:14;;;;;;;1.57;1.37;;;17.10;76.30;;;;;;5152735;27;20451;-40
2021/06/05 06:42:44;;;;;;;1.40;1.30;;;17.10;78.60;;;;;;5164398;27;20544;-40
2021/06/05 06:45:15;;;;;;;3.90;1.70;;;17.10;78.70;;;;;;5165123;27;20526;-40
2021/06/05 06:47:47;;;;;;;1.30;1.20;;;17.00;79.50;;;;;;5164935;27;20432;-41
2021/06/05 06:50:20;;;;;;;1.40;1.30;;;17.00;78.00;;;;;;5164776;27;20756;-40
2021/06/05 06:52:52;;;;;;;1.80;1.70;;;16.90;80.70;;;;;;5165222;27;20442;-40
2021/06/05 06:55:24;;;;;;;2.50;1.87;;;16.90;80.70;;;;;;5164805;27;20454;-40
2021/06/05 06:57:55;;;;;;;1.67;1.43;;;16.80;81.80;;;;;;5160950;27;20452;-41
2021/06/05 07:00:29;;;;;;;2.20;2.00;;;16.80;82.50;;;;;;5164693;27;20493;-41
2021/06/05 07:03:02;;;;;;;3.50;1.70;;;16.70;84.30;;;;;;5164807;27;20439;-41
2021/06/05 07:05:33;;;;;;;1.80;1.70;;;16.70;85.20;;;;;;5164248;27;20448;-41
2021/06/05 07:08:12;;;;;;;2.80;2.17;;;16.60;84.20;;;;;;5164672;27;20447;-40
2021/06/05 07:10:43;;;;;;;1.87;1.77;;;16.40;83.80;;;;;;5164337;27;20959;-41
2021/06/05 07:13:14;;;;;;;2.07;1.67;;;16.40;86.30;;;;;;5163822;27;20952;-41
2021/06/05 07:15:45;;;;;;;2.27;1.37;;;16.50;87.00;;;;;;5164601;27;20527;-41
2021/06/05 07:18:19;;;;;;;2.10;1.90;;;16.40;87.90;;;;;;5144238;27;20480;-41
2021/06/05 07:20:51;;;;;;;1.73;1.60;;;16.40;88.70;;;;;;5148461;27;20601;-41
2021/06/05 07:23:24;;;;;;;2.27;1.70;;;16.30;89.70;;;;;;5152347;27;20483;-41
2021/06/05 07:25:55;;;;;;;2.60;1.80;;;16.30;88.40;;;;;;5164893;27;20455;-41
2021/06/05 07:28:28;;;;;;;2.37;1.97;;;16.30;90.50;;;;;;5169187;27;20436;-41
2021/06/05 07:30:59;;;;;;;1.63;1.53;;;16.30;89.80;;;;;;5169186;27;20492;-40
2021/06/05 07:33:31;;;;;;;2.10;1.70;;;16.20;90.40;;;;;;5168869;27;20440;-41
2021/06/05 07:36:02;;;;;;;2.33;1.50;;;16.20;90.40;;;;;;5168592;27;20500;-40
2021/06/05 07:38:34;;;;;;;1.40;1.30;;;16.20;91.60;;;;;;5168811;27;20492;-41
2021/06/05 07:41:04;;;;;;;3.33;1.50;;;16.20;91.70;;;;;;5163689;27;20458;-41
2021/06/05 07:43:35;;;;;;;3.53;1.90;;;16.30;92.60;;;;;;5168615;27;20452;-41
2021/06/05 07:46:05;;;;;;;4.13;1.73;;;16.30;93.00;;;;;;5168114;27;20823;-39
2021/06/05 07:48:37;;;;;;;5.03;1.60;;;16.20;93.00;;;;;;5160819;27;20443;-41
2021/06/05 07:51:09;;;;;;;1.70;1.60;;;16.30;93.60;;;;;;5168687;27;20468;-41
2021/06/05 07:53:39;;;;;;;3.27;1.50;;;16.20;93.60;;;;;;5155521;27;20490;-41
2021/06/05 07:56:11;;;;;;;2.13;1.80;;;16.20;93.00;;;;;;5167419;27;20471;-41
2021/06/05 07:58:42;;;;;;;2.30;1.37;;;16.20;93.90;;;;;;5168632;27;20934;-40
2021/06/05 08:01:12;;;;;;;2.70;1.63;;;16.10;94.10;;;;;;5168512;27;20882;-41
2021/06/05 08:03:44;;;;;;;1.83;1.50;;;16.10;94.00;;;;;;5169252;27;20420;-41
2021/06/05 08:06:15;;;;;;;2.90;1.50;;;16.10;94.10;;;;;;5167739;27;20567;-41
2021/06/05 08:08:45;;;;;;;1.70;1.60;;;16.00;94.30;;;;;;5168746;27;20451;-40
2021/06/05 08:11:16;;;;;;;1.70;1.60;;;16.10;93.90;;;;;;5167689;27;20991;-41
2021/06/05 08:13:46;;;;;;;1.80;1.70;;;16.00;93.20;;;;;;5168026;27;20440;-41
2021/06/05 08:16:17;;;;;;;2.47;1.60;;;16.00;94.80;;;;;;5168403;27;20847;-40
2021/06/05 08:18:49;;;;;;;1.60;1.50;;;16.20;95.30;;;;;;5168673;27;20553;-41
2021/06/05 08:21:21;;;;;;;1.67;1.57;;;16.20;95.40;;;;;;5167991;27;20447;-40
2021/06/05 08:23:52;;;;;;;2.10;1.90;;;16.20;95.00;;;;;;5167924;27;20511;-40
2021/06/05 08:26:23;;;;;;;1.97;1.83;;;16.30;95.40;;;;;;5167249;27;20444;-40
2021/06/05 08:28:54;;;;;;;2.00;1.83;;;16.40;95.40;;;;;;5168177;27;20435;-40
2021/06/05 08:31:25;;;;;;;3.17;1.70;;;16.40;95.00;;;;;;5155962;27;20460;-40
2021/06/05 08:33:57;;;;;;;2.57;1.87;;;16.30;94.90;;;;;;5167518;27;20479;-41
2021/06/05 08:36:30;;;;;;;2.20;2.00;;;16.40;95.60;;;;;;5167569;27;20527;-42
2021/06/05 08:42:19;;;;;;;2.17;1.97;;;16.40;96.40;;;;;;5146680;27;20481;-41
2021/06/05 08:44:52;;;;;;;1.80;1.70;;;16.50;96.70;;;;;;5162371;27;20439;-42
2021/06/05 08:47:27;;;;;;;1.90;1.43;;;16.40;95.30;;;;;;5167432;27;20483;-40
2021/06/05 08:50:02;;;;;;;1.90;1.80;;;16.40;95.50;;;;;;5167734;27;20440;-41
2021/06/05 08:52:37;;;;;;;4.60;1.83;;;16.50;95.80;;;;;;5167528;27;20436;-41
2021/06/05 08:55:13;;;;;;;3.57;1.80;;;16.50;95.20;;;;;;5167086;27;20487;-40
2021/06/05 08:57:47;;;;;;;2.60;2.40;;;16.50;95.10;;;;;;5159219;27;20487;-40
2021/06/05 09:00:24;;;;;;;3.27;3.00;;;16.50;94.60;;;;;;5147197;27;20445;-40
2021/06/05 09:02:58;;;;;;;2.70;2.50;;;16.50;94.60;;;;;;5157518;27;20462;-41
2021/06/05 09:05:33;;;;;;;2.87;2.43;;;16.60;95.20;;;;;;5162605;27;20462;-40
2021/06/05 09:08:05;;;;;;;2.70;2.50;;;16.60;94.30;;;;;;5167830;27;20440;-41
2021/06/05 09:10:36;;;;;;;2.73;2.50;;;16.70;93.50;;;;;;5167279;27;20440;-41
2021/06/05 09:13:07;;;;;;;2.90;2.70;;;16.70;94.10;;;;;;5166995;27;20436;-40
2021/06/05 09:15:38;;;;;;;3.00;2.70;;;16.70;93.80;;;;;;5167135;27;20490;-40
2021/06/05 09:18:10;;;;;;;2.53;2.43;;;16.70;93.80;;;;;;5166593;27;20444;-40
2021/06/05 09:20:44;;;;;;;2.70;2.50;;;16.70;94.00;;;;;;5167198;27;20439;-39
2021/06/05 09:23:33;;;;;;;2.70;2.50;;;16.60;93.60;;;;;;5167374;27;20464;-40
2021/06/05 09:26:23;;;;;;;4.20;2.33;;;16.60;93.90;;;;;;5166239;27;20870;-40
2021/06/05 09:29:11;;;;;;;2.57;2.37;;;16.60;94.70;;;;;;5150155;27;20874;-41
2021/06/05 09:31:54;;;;;;;2.10;1.77;;;16.60;94.00;;;;;;5157139;27;20443;-41
2021/06/05 09:34:36;;;;;;;5.03;2.93;;;16.50;93.90;;;;;;5166301;27;20586;-40
2021/06/05 09:37:25;;;;;;;3.33;1.90;;;16.40;94.20;;;;;;5166572;27;20468;-40
2021/06/05 09:40:05;;;;;;;2.80;1.60;;;16.50;94.20;;;;;;5166259;27;20464;-41
2021/06/05 09:42:39;;;;;;;2.13;2.03;;;16.50;94.30;;;;;;5165622;27;20452;-40
2021/06/05 09:45:25;;;;;;;1.60;1.50;;;16.40;94.50;;;;;;5166118;27;20478;-40
2021/06/05 09:48:20;;;;;;;2.03;1.80;;;16.40;94.60;;;;;;5165749;27;20451;-41
2021/06/05 09:50:52;;;;;;;2.10;1.80;;;16.40;94.80;;;;;;5166283;27;20441;-39
2021/06/05 09:53:29;;;;;;;1.73;1.60;;;16.40;94.90;;;;;;5166596;27;20482;-41
2021/06/05 09:56:05;;;;;;;2.90;2.03;;;16.30;94.90;;;;;;5157583;27;20885;-40
2021/06/05 09:58:38;;;;;;;2.50;2.00;;;16.40;94.90;;;;;;5148193;27;20445;-41
2021/06/05 10:01:19;;;;;;;2.47;1.87;;;16.40;95.00;;;;;;5150449;27;20515;-41
2021/06/05 10:03:51;;;;;;;2.00;1.90;;;16.40;95.00;;;;;;5166004;27;20436;-40
2021/06/05 10:06:35;;;;;;;2.30;1.97;;;16.40;94.90;;;;;;5165936;27;20475;-41
2021/06/05 10:09:21;;;;;;;2.57;1.90;;;16.40;95.00;;;;;;5151864;27;20455;-40
2021/06/05 10:11:53;;;;;;;1.93;1.70;;;16.40;94.80;;;;;;5165416;27;20492;-41
2021/06/05 10:14:34;;;;;;;3.43;1.60;;;16.30;94.90;;;;;;5165950;27;20440;-40
2021/06/05 10:17:11;;;;;;;1.57;1.47;;;16.30;95.20;;;;;;5165212;27;20492;-40
2021/06/05 10:19:45;;;;;;;2.03;1.70;;;16.30;95.30;;;;;;5165638;27;20471;-41
2021/06/05 10:22:16;;;;;;;2.47;1.73;;;16.40;94.90;;;;;;5165037;27;20436;-41
2021/06/05 10:24:55;;;;;;;2.40;1.73;;;16.30;94.80;;;;;;5165649;27;20443;-40
2021/06/05 10:27:30;;;;;;;3.37;1.90;;;16.30;94.50;;;;;;5144299;27;20427;-40
2021/06/05 10:30:04;;;;;;;1.90;1.80;;;16.30;94.80;;;;;;5155360;27;20439;-41
2021/06/05 10:32:43;;;;;;;1.47;1.30;;;16.20;94.80;;;;;;5159285;27;20458;-40
2021/06/05 10:35:23;;;;;;;1.50;1.40;;;16.20;94.60;;;;;;5150223;27;20506;-40
2021/06/05 10:37:56;;;;;;;4.70;1.50;;;16.20;94.10;;;;;;5144407;27;20524;-41
2021/06/05 10:40:30;;;;;;;1.67;1.57;;;16.20;94.40;;;;;;5155353;27;20444;-40
2021/06/05 10:43:01;;;;;;;2.00;1.80;;;16.20;93.50;;;;;;5164815;27;20493;-41
2021/06/05 10:45:35;;;;;;;1.77;1.20;;;16.20;93.20;;;;;;5165718;27;20508;-40
2021/06/05 10:48:12;;;;;;;1.50;1.40;;;16.10;92.90;;;;;;5164959;27;20459;-40
2021/06/05 10:50:46;;;;;;;1.67;1.50;;;16.10;92.90;;;;;;5165090;27;20487;-40
2021/06/05 10:53:25;;;;;;;1.93;1.20;;;16.10;92.80;;;;;;5163675;27;20931;-40
2021/06/05 10:55:59;;;;;;;1.53;1.10;;;16.10;92.80;;;;;;5164555;27;20487;-42
2021/06/05 10:58:42;;;;;;;1.37;1.23;;;16.10;92.20;;;;;;5157440;27;20439;-40
2021/06/05 11:01:34;;;;;;;1.13;1.10;;;16.20;92.30;;;;;;5154857;27;20474;-40
2021/06/05 11:04:29;;;;;;;3.00;1.33;;;16.20;92.10;;;;;;5164387;27;20440;-41
2021/06/05 11:07:29;;;;;;;1.50;1.40;;;16.20;91.90;;;;;;5164900;27;20818;-41
2021/06/05 11:10:01;;;;;;;0.77;0.77;;;16.20;92.00;;;;;;5164347;27;20919;-40
2021/06/05 11:12:53;;;;;;;1.13;1.03;;;16.20;91.20;;;;;;5164709;27;20420;-40
2021/06/05 11:15:59;;;;;;;1.47;1.37;;;16.20;91.40;;;;;;5165412;27;20479;-41
2021/06/05 11:18:34;;;;;;;1.10;1.07;;;16.20;91.40;;;;;;5157999;27;20448;-40
2021/06/05 11:21:41;;;;;;;2.40;1.10;;;16.20;91.00;;;;;;5161350;27;20910;-40
2021/06/05 11:24:21;;;;;;;1.80;1.33;;;16.20;90.50;;;;;;5164745;27;20473;-41
2021/06/05 11:26:54;;;;;;;1.40;1.30;;;16.20;87.80;;;;;;5164105;27;20447;-41
2021/06/05 11:29:52;;;;;;;1.00;1.00;;;16.10;87.60;;;;;;5164130;27;20451;-41
2021/06/05 11:33:00;;;;;;;1.00;0.90;;;16.10;86.60;;;;;;5164022;27;20488;-41
2021/06/05 11:35:37;;;;;;;1.03;0.93;;;16.10;87.60;;;;;;5155105;27;20804;-40
2021/06/05 11:38:09;;;;;;;1.03;0.80;;;16.10;88.10;;;;;;5163770;27;20547;-40
2021/06/05 11:41:00;;;;;;;0.60;0.60;;;16.10;84.30;;;;;;5144029;28;20490;-41
2021/06/05 11:44:01;;;;;;;1.10;1.00;;;16.10;84.50;;;;;;5144005;28;20947;-40
2021/06/05 11:46:50;;;;;;;0.93;0.70;;;16.10;81.50;;;;;;5164183;27;20519;-40
2021/06/05 11:49:56;;;;;;;1.00;0.70;;;16.10;81.50;;;;;;5164333;27;20456;-40
2021/06/05 11:52:43;;;;;;;0.87;0.60;;;16.10;80.40;;;;;;5165200;27;20455;-40
2021/06/05 11:55:25;;;;;;;0.50;0.50;;;16.10;78.90;;;;;;5164534;27;20499;-41
2021/06/05 11:58:12;;;;;;;0.73;0.73;;;16.20;77.60;;;;;;5163269;27;20527;-41
2021/06/05 12:00:48;;;;;;;0.50;0.50;;;16.10;77.40;;;;;;5164351;27;20472;-41
2021/06/05 12:03:27;;;;;;;0.70;0.67;;;16.10;78.00;;;;;;5163946;27;20451;-41
2021/06/05 12:06:12;;;;;;;3.53;0.70;;;16.10;77.70;;;;;;5167321;27;20443;-41
2021/06/05 12:08:43;;;;;;;0.40;0.40;;;16.10;78.70;;;;;;5161091;27;20470;-41
2021/06/05 12:11:27;;;;;;;0.50;0.50;;;16.10;77.50;;;;;;5167953;27;20451;-41
2021/06/05 12:14:12;;;;;;;1.43;0.50;;;16.20;78.20;;;;;;5168039;27;20486;-41
2021/06/05 12:16:49;;;;;;;0.50;0.50;;;16.20;78.40;;;;;;5168452;27;20467;-41
2021/06/05 12:19:30;;;;;;;3.53;0.80;;;16.10;78.40;;;;;;5167876;27;20447;-41
2021/06/05 12:22:13;;;;;;;1.03;0.70;;;16.10;80.50;;;;;;5168344;27;20978;-41
2021/06/05 12:24:48;;;;;;;0.87;0.53;;;16.10;83.30;;;;;;5168303;27;20504;-41
2021/06/05 12:27:25;;;;;;;1.33;0.87;;;16.10;84.80;;;;;;5167114;27;20447;-41
2021/06/05 12:30:11;;;;;;;0.80;0.70;;;16.10;89.30;;;;;;5167999;27;20475;-41
2021/06/05 12:32:53;;;;;;;0.73;0.73;;;16.00;90.40;;;;;;5152372;27;20456;-41
2021/06/05 12:35:29;;;;;;;0.80;0.73;;;16.00;92.40;;;;;;5167935;27;20450;-42
2021/06/05 12:38:01;;;;;;;1.50;0.50;;;16.00;95.00;;;;;;5167804;27;20471;-42
2021/06/05 12:40:38;;;;;;;0.80;0.63;;;16.00;96.90;;;;;;5167874;27;20531;-41
2021/06/05 12:43:10;;;;;;;1.10;0.90;;;15.90;98.10;;;;;;5167048;27;20594;-41
2021/06/05 12:45:40;;;;;;;1.13;1.03;;;16.00;98.70;;;;;;5167988;27;20440;-41
2021/06/05 12:48:16;;;;;;;1.13;0.70;;;16.00;98.60;;;;;;5166619;27;20488;-41
2021/06/05 12:50:49;;;;;;;2.30;1.00;;;15.90;98.50;;;;;;5157154;27;20427;-41
2021/06/05 12:53:22;;;;;;;1.00;1.00;;;15.90;98.00;;;;;;5168279;27;20451;-41
2021/06/05 12:55:54;;;;;;;1.00;0.90;;;15.90;97.70;;;;;;5166569;27;20483;-41
2021/06/05 12:58:37;;;;;;;1.13;1.00;;;16.00;97.60;;;;;;5167758;27;20444;-41
2021/06/05 13:01:28;;;;;;;2.00;1.10;;;15.90;97.00;;;;;;5167313;27;20931;-41
2021/06/05 13:03:59;;;;;;;1.63;1.50;;;15.90;96.50;;;;;;5166576;27;20459;-41
2021/06/05 13:06:34;;;;;;;2.73;1.90;;;16.00;95.60;;;;;;5167313;27;20479;-42
2021/06/05 13:09:26;;;;;;;3.10;2.30;;;15.90;94.20;;;;;;5167007;27;20435;-41
2021/06/05 13:11:58;;;;;;;4.33;3.93;;;15.90;94.50;;;;;;5166664;27;20504;-41
2021/06/05 13:14:34;;;;;;;6.07;4.63;;;16.00;94.70;;;;;;5167115;27;20952;-42
2021/06/05 13:17:17;;;;;;;4.90;4.10;;;15.90;94.90;;;;;;5165563;27;20494;-41
2021/06/05 13:19:49;;;;;;;9.40;3.97;;;15.90;94.90;;;;;;5166360;27;20536;-41
2021/06/05 13:22:24;;;;;;;5.40;3.97;;;15.80;95.00;;;;;;5166903;27;20497;-41
2021/06/05 13:25:22;;;;;;;4.33;3.93;;;15.80;95.20;;;;;;5166216;27;20467;-41
2021/06/05 13:28:12;;;;;;;4.77;4.30;;;15.70;96.20;;;;;;5164709;27;20570;-42
2021/06/05 13:30:47;;;;;;;4.33;3.57;;;15.70;97.20;;;;;;5166552;27;20954;-41